MOL Contribution — 7KAD — position and weather

sailwx.info

Track history (hours):
 
Tides and Currents Weather Stations Pressure Air Temp Water Temp Dewpoint Dewpoint Depression Visibility Wind Speed Wind Dir Waves Ship Positions

MOL Contribution

Last reported at 2017-Sep-17 19:56 UTC. Time now 2017-Sep-25 11:37 UTC.
Position N 38°09' W 124°58'.

Length 316 m; draft 12.6 m.

Type: Ship (hazmat cat A). MMSI: 431496000.

Date/timePositionNaut miles runAvg speedWind from/ knotsBaromVisibWave heightAir tempDewpointWater temp
2017-Sep-17 19:56N 38°09' W 124°58'817.6
2017-Sep-17 19:30N 38°10' W 124°49'917.5
2017-Sep-17 19:01N 38°10' W 124°38'1217.5
2017-Sep-17 18:19N 38°10' W 124°22'517.2
2017-Sep-17 18:00N 38°10' W 124°15'917.3
2017-Sep-17 17:31N 38°10' W 124°05'917.4
2017-Sep-17 17:00N 38°09' W 123°53'917.4
2017-Sep-17 16:31N 38°10' W 123°42'816.9
2017-Sep-17 16:01N 38°09' W 123°32'714.3
2017-Sep-17 15:30N 38°09' W 123°23'5 9.2
2017-Sep-17 15:00N 38°07' W 123°18'5 9.6
2017-Sep-17 14:30N 38°03' W 123°14'5 9.5
2017-Sep-17 14:00N 37°59' W 123°10'5 9.6
2017-Sep-17 13:30N 37°57' W 123°05'5 9.3
2017-Sep-17 13:00N 37°55' W 122°59'5 9.5
2017-Sep-17 12:30N 37°52' W 122°54'5 9.6
2017-Sep-17 12:00N 37°50' W 122°49'5 9.8
2017-Sep-17 11:30N 37°47' W 122°44'5 9.3
2017-Sep-17 11:00N 37°46' W 122°38'612.0
2017-Sep-17 10:30N 37°48' W 122°31'612.0
2017-Sep-17 10:00N 37°49' W 122°24'3 6.3
2017-Sep-17 09:30N 37°49' W 122°20'0 0.4
2017-Sep-17 09:00N 37°49' W 122°20'0 0.0
2017-Sep-17 08:30N 37°49' W 122°20'0 0.0
2017-Sep-17 08:00N 37°49' W 122°20'0 0.0
2017-Sep-17 07:30N 37°49' W 122°20'0 0.0
2017-Sep-17 07:00N 37°49' W 122°20'0 0.0
2017-Sep-17 06:30N 37°49' W 122°20'0 0.0
2017-Sep-17 06:00N 37°49' W 122°20'0 0.0
2017-Sep-17 05:30N 37°49' W 122°20'0 0.0
2017-Sep-17 05:00N 37°49' W 122°20'0 0.0
2017-Sep-17 04:30N 37°49' W 122°20'0 0.0
2017-Sep-17 04:00N 37°49' W 122°20'0 0.0
2017-Sep-17 03:30N 37°49' W 122°20'0 0.0
2017-Sep-17 03:00N 37°49' W 122°20'0 0.0
2017-Sep-17 02:30N 37°49' W 122°20'0 0.0
2017-Sep-17 02:00N 37°49' W 122°20'0 0.0
2017-Sep-17 01:30N 37°49' W 122°20'0 0.0
2017-Sep-17 01:00N 37°49' W 122°20'0 0.0
2017-Sep-17 00:30N 37°49' W 122°20'0 0.0
2017-Sep-17 00:00N 37°49' W 122°20'0 0.0
2017-Sep-16 23:30N 37°49' W 122°20'0 0.0
2017-Sep-16 23:00N 37°49' W 122°20'0 0.0
2017-Sep-16 22:30N 37°49' W 122°20'0 0.0
2017-Sep-16 22:00N 37°49' W 122°20'0 0.0
2017-Sep-16 21:30N 37°49' W 122°20'0 0.0
2017-Sep-16 21:00N 37°49' W 122°20'0 0.0
2017-Sep-16 20:30N 37°49' W 122°20'0 0.0
2017-Sep-16 20:00N 37°49' W 122°20'0 0.0
2017-Sep-16 19:30N 37°49' W 122°20'0 0.1
2017-Sep-16 19:00N 37°49' W 122°20'0 0.1
2017-Sep-16 18:30N 37°49' W 122°20'0 0.0
2017-Sep-16 18:00N 37°49' W 122°20'0 0.0
2017-Sep-16 17:30N 37°49' W 122°20'0 0.0
2017-Sep-16 17:00N 37°49' W 122°20'0 0.0
2017-Sep-16 16:30N 37°49' W 122°20'0 0.0
2017-Sep-16 16:00N 37°49' W 122°20'0 0.0
2017-Sep-16 15:30N 37°49' W 122°20'0 0.0
2017-Sep-16 15:00N 37°49' W 122°20'0 0.0
2017-Sep-16 14:30N 37°49' W 122°20'0 0.0
2017-Sep-16 14:00N 37°49' W 122°20'0 0.0
2017-Sep-16 13:30N 37°49' W 122°20'0 0.0
2017-Sep-16 13:00N 37°49' W 122°20'0 0.0
2017-Sep-16 12:30N 37°49' W 122°20'0 0.0
2017-Sep-16 12:00N 37°49' W 122°20'0 0.0
2017-Sep-16 11:30N 37°49' W 122°20'0 0.0
2017-Sep-16 11:00N 37°49' W 122°20'0 0.0
2017-Sep-16 10:30N 37°49' W 122°20'0 0.0
2017-Sep-16 10:00N 37°49' W 122°20'0 0.1
2017-Sep-16 09:30N 37°49' W 122°20'0 0.1
2017-Sep-16 09:00N 37°49' W 122°20'0 0.0
2017-Sep-16 08:30N 37°49' W 122°20'0 0.0
2017-Sep-16 08:00N 37°49' W 122°20'0 0.0
2017-Sep-16 07:30N 37°49' W 122°20'0 0.0
2017-Sep-16 07:00N 37°49' W 122°20'0 0.0
2017-Sep-16 06:30N 37°49' W 122°20'0 0.0
2017-Sep-16 06:00N 37°49' W 122°20'0 0.0
2017-Sep-16 05:30N 37°49' W 122°20'0 0.0
2017-Sep-16 05:00N 37°49' W 122°20'0 0.0
2017-Sep-16 04:30N 37°49' W 122°20'0 0.0
2017-Sep-16 04:00N 37°49' W 122°20'0 0.0
2017-Sep-16 03:30N 37°49' W 122°20'0 0.0
2017-Sep-16 03:00N 37°49' W 122°20'0 0.0
2017-Sep-16 02:30N 37°49' W 122°20'0 0.0
2017-Sep-16 02:00N 37°49' W 122°20'0 0.0
2017-Sep-16 01:30N 37°49' W 122°20'0 0.0
2017-Sep-16 01:00N 37°49' W 122°20'0 0.0
2017-Sep-16 00:30N 37°49' W 122°20'0 0.0
2017-Sep-16 00:00N 37°49' W 122°20'0 0.0
2017-Sep-15 23:27N 37°49' W 122°20'0 0.8
2017-Sep-15 23:00N 37°49' W 122°20'4 7.9
2017-Sep-15 22:30N 37°49' W 122°25'612.4
2017-Sep-15 22:01N 37°47' W 122°33'612.8
2017-Sep-15 21:30N 37°45' W 122°40'4 7.1
2017-Sep-15 21:00N 37°41' W 122°40'714.5
2017-Sep-15 20:30N 37°34' W 122°39'918.5
2017-Sep-15 20:00N 37°25' W 122°39'918.7
2017-Sep-15 19:30N 37°16' W 122°39'1020.1
2017-Sep-15 19:01N 37°06' W 122°37'1121.1
2017-Sep-15 18:30N 36°55' W 122°33'2021.6
2017-Sep-15 17:36N 36°37' W 122°24'321.6
2017-Sep-15 17:27N 36°35' W 122°22'1222.2
2017-Sep-15 16:56N 36°24' W 122°16'1122.4
2017-Sep-15 16:26N 36°14' W 122°09'922.2
2017-Sep-15 16:00N 36°06' W 122°04'1522.3
2017-Sep-15 15:20N 35°53' W 121°54'722.2
2017-Sep-15 15:00N 35°47' W 121°50'1121.9
2017-Sep-15 14:30N 35°37' W 121°43'1121.8
2017-Sep-15 14:00N 35°28' W 121°37'1122.3
2017-Sep-15 13:30N 35°18' W 121°30'1122.0
2017-Sep-15 13:00N 35°09' W 121°23'1122.3
2017-Sep-15 12:30N 34°59' W 121°16'1122.1
2017-Sep-15 12:00N 34°50' W 121°09'1122.1
2017-Sep-15 11:30N 34°40' W 121°02'1122.0
2017-Sep-15 11:00N 34°31' W 120°56'1020.5
2017-Sep-15 10:30N 34°25' W 120°45'1122.2
2017-Sep-15 10:00N 34°22' W 120°32'1222.3
2017-Sep-15 09:28N 34°19' W 120°18'1122.3
2017-Sep-15 09:00N 34°16' W 120°06'1122.2
2017-Sep-15 08:31N 34°13' W 119°53'1122.3
2017-Sep-15 08:00N 34°10' W 119°40'1221.9
2017-Sep-15 07:29N 34°07' W 119°27'1020.3
2017-Sep-15 07:00N 34°04' W 119°16'917.4
2017-Sep-15 06:30N 34°00' W 119°06'713.4
2017-Sep-15 06:00N 33°57' W 118°59'611.7
2017-Sep-15 05:30N 33°54' W 118°53'611.8
2017-Sep-15 05:00N 33°51' W 118°47'611.8
2017-Sep-15 04:30N 33°48' W 118°41'611.8
2017-Sep-15 04:00N 33°45' W 118°35'611.8
2017-Sep-15 03:30N 33°42' W 118°29'611.9
2017-Sep-15 03:00N 33°39' W 118°22'611.1
2017-Sep-15 02:30N 33°39' W 118°16'4 7.7
2017-Sep-15 02:00N 33°43' W 118°15'2 4.7
2017-Sep-15 01:30N 33°45' W 118°16'0 0.9
2017-Sep-15 01:00N 33°45' W 118°16'0 0.0
2017-Sep-15 00:30N 33°45' W 118°16'0 0.0
2017-Sep-14 23:57N 33°45' W 118°16'0 0.0
2017-Sep-14 22:48N 33°45' W 118°16'0 0.0
2017-Sep-14 22:30N 33°45' W 118°16'0 0.0
2017-Sep-14 21:42N 33°45' W 118°16'0 0.0
2017-Sep-14 21:18N 33°45' W 118°16'0 0.0
2017-Sep-14 20:48N 33°45' W 118°16'0 0.0
2017-Sep-14 20:30N 33°45' W 118°16'0 0.0
2017-Sep-14 20:00N 33°45' W 118°16'0 0.0
2017-Sep-14 19:21N 33°45' W 118°16'0 0.0
2017-Sep-14 18:39N 33°45' W 118°16'0 0.0
2017-Sep-14 18:30N 33°45' W 118°16'0 0.0
2017-Sep-14 18:00N 33°45' W 118°16'0 0.0
2017-Sep-14 17:24N 33°45' W 118°16'0 0.0
2017-Sep-14 16:54N 33°45' W 118°16'0 0.0
2017-Sep-14 16:30N 33°45' W 118°16'0 0.0
2017-Sep-14 16:00N 33°45' W 118°16'0 0.0
2017-Sep-14 15:30N 33°45' W 118°16'0 0.0
2017-Sep-14 14:18N 33°45' W 118°16'0 0.0
2017-Sep-14 13:57N 33°45' W 118°16'0 0.0
2017-Sep-14 13:09N 33°45' W 118°16'0 0.0
2017-Sep-14 12:54N 33°45' W 118°16'0 0.0
2017-Sep-14 12:18N 33°45' W 118°16'0 0.0
2017-Sep-14 10:48N 33°45' W 118°16'0 0.0
2017-Sep-14 10:18N 33°45' W 118°16'0 0.0
2017-Sep-14 09:15N 33°45' W 118°16'0 0.0
2017-Sep-14 08:00N 33°45' W 118°16'0 0.0
2017-Sep-14 07:24N 33°45' W 118°16'0 0.0
2017-Sep-14 06:42N 33°45' W 118°16'0 0.0
2017-Sep-14 06:21N 33°45' W 118°16'0 0.0
2017-Sep-14 05:57N 33°45' W 118°16'0 0.0
2017-Sep-14 05:27N 33°45' W 118°16'0 0.0
2017-Sep-14 04:57N 33°45' W 118°16'0 0.0
2017-Sep-14 04:30N 33°45' W 118°16'0 0.0
2017-Sep-14 03:54N 33°45' W 118°16'0 0.0
2017-Sep-14 03:24N 33°45' W 118°16'0 0.0
2017-Sep-14 03:00N 33°45' W 118°16'0 0.0
2017-Sep-14 02:30N 33°45' W 118°16'0 0.0
2017-Sep-14 02:00N 33°45' W 118°16'0 0.0
2017-Sep-14 01:30N 33°45' W 118°16'0 0.0
2017-Sep-14 01:00N 33°45' W 118°16'0 0.0
2017-Sep-14 00:30N 33°45' W 118°16'0 0.0
2017-Sep-14 00:00N 33°45' W 118°16'0 0.0
2017-Sep-13 23:27N 33°45' W 118°16'0 0.0
2017-Sep-13 23:00N 33°45' W 118°16'0 0.0
2017-Sep-13 22:30N 33°45' W 118°16'0 0.0
2017-Sep-13 22:00N 33°45' W 118°16'0 0.0
2017-Sep-13 21:30N 33°45' W 118°16'0 0.0
2017-Sep-13 21:00N 33°45' W 118°16'0 0.0
2017-Sep-13 20:30N 33°45' W 118°16'0 0.0
2017-Sep-13 20:00N 33°45' W 118°16'0 0.0
2017-Sep-13 19:30N 33°45' W 118°16'0 0.0
2017-Sep-13 18:54N 33°45' W 118°16'0 0.0
2017-Sep-13 18:30N 33°45' W 118°16'0 0.0
2017-Sep-13 18:00N 33°45' W 118°16'0 0.0
2017-Sep-13 17:30N 33°45' W 118°16'0 0.0
2017-Sep-13 17:00N 33°45' W 118°16'0 0.0
2017-Sep-13 16:30N 33°45' W 118°16'0 0.0
2017-Sep-13 15:57N 33°45' W 118°16'0 0.0
2017-Sep-13 15:15N 33°45' W 118°16'0 0.0
2017-Sep-13 15:00N 33°45' W 118°16'0 0.0
2017-Sep-13 14:30N 33°45' W 118°16'0 0.0
2017-Sep-13 14:00N 33°45' W 118°16'0 0.0
2017-Sep-13 13:30N 33°45' W 118°16'0 0.0
2017-Sep-13 13:00N 33°45' W 118°16'0 0.0
2017-Sep-13 12:30N 33°45' W 118°16'0 0.0
2017-Sep-13 12:00N 33°45' W 118°16'0 0.0
2017-Sep-13 11:30N 33°45' W 118°16'0 0.0
2017-Sep-13 11:00N 33°45' W 118°16'0 0.0
2017-Sep-13 10:30N 33°45' W 118°16'0 0.0
2017-Sep-13 10:00N 33°45' W 118°16'0 0.0
2017-Sep-13 09:30N 33°45' W 118°16'0 0.0
2017-Sep-13 08:57N 33°45' W 118°16'0 0.0
2017-Sep-13 08:30N 33°45' W 118°16'0 0.0
2017-Sep-13 08:00N 33°45' W 118°16'0 0.0
2017-Sep-13 07:30N 33°45' W 118°16'0 0.0
2017-Sep-13 07:00N 33°45' W 118°16'0 0.0
2017-Sep-13 06:30N 33°45' W 118°16'0 0.0
2017-Sep-13 06:00N 33°45' W 118°16'0 0.0
2017-Sep-13 05:30N 33°45' W 118°16'0 0.0
2017-Sep-13 05:00N 33°45' W 118°16'0 0.0
2017-Sep-13 04:27N 33°45' W 118°16'0 0.0
2017-Sep-13 04:00N 33°45' W 118°16'0 0.0
2017-Sep-13 03:30N 33°45' W 118°16'0 0.0
2017-Sep-13 03:00N 33°45' W 118°16'0 0.0
2017-Sep-13 02:30N 33°45' W 118°16'0 0.0
2017-Sep-13 02:00N 33°45' W 118°16'0 0.0
2017-Sep-13 01:30N 33°45' W 118°16'0 0.0
2017-Sep-13 01:00N 33°45' W 118°16'0 0.0
2017-Sep-13 00:30N 33°45' W 118°16'0 0.0
2017-Sep-13 00:00N 33°45' W 118°16'0 0.0
2017-Sep-12 23:30N 33°45' W 118°16'0 0.0
2017-Sep-12 23:00N 33°45' W 118°16'0 0.0
2017-Sep-12 22:30N 33°45' W 118°16'0 0.0
2017-Sep-12 22:00N 33°45' W 118°16'0 0.0
2017-Sep-12 21:30N 33°45' W 118°16'0 0.0
2017-Sep-12 21:00N 33°45' W 118°16'0 0.0
2017-Sep-12 20:30N 33°45' W 118°16'0 0.0
2017-Sep-12 20:00N 33°45' W 118°16'0 0.0
2017-Sep-12 19:30N 33°45' W 118°16'0 0.0
2017-Sep-12 19:00N 33°45' W 118°16'0 0.0
2017-Sep-12 18:30N 33°45' W 118°16'0 0.0
2017-Sep-12 18:00N 33°45' W 118°16'0 0.0
2017-Sep-12 17:30N 33°45' W 118°16'0 0.0
2017-Sep-12 17:00N 33°45' W 118°16'0 0.0
2017-Sep-12 16:30N 33°45' W 118°16'0 0.0
2017-Sep-12 16:00N 33°45' W 118°16'0 0.0
2017-Sep-12 15:30N 33°45' W 118°16'0 0.0
2017-Sep-12 15:00N 33°45' W 118°16'0 0.0
2017-Sep-12 14:30N 33°45' W 118°16'0 0.0
2017-Sep-12 14:00N 33°45' W 118°16'0 0.0
2017-Sep-12 13:30N 33°45' W 118°16'0 0.0
2017-Sep-12 13:00N 33°45' W 118°16'0 0.0
2017-Sep-12 12:30N 33°45' W 118°16'0 0.0
2017-Sep-12 12:00N 33°45' W 118°16'0 0.0
2017-Sep-12 11:24N 33°45' W 118°16'0 0.0
2017-Sep-12 11:00N 33°45' W 118°16'0 0.0
2017-Sep-12 10:30N 33°45' W 118°16'0 0.0
2017-Sep-12 10:00N 33°45' W 118°16'0 0.0
2017-Sep-12 09:30N 33°45' W 118°16'0 0.0
2017-Sep-12 09:00N 33°45' W 118°16'0 0.0
2017-Sep-12 08:30N 33°45' W 118°16'0 0.0
2017-Sep-12 08:00N 33°45' W 118°16'0 0.0
2017-Sep-12 07:30N 33°45' W 118°16'0 0.0
2017-Sep-12 07:00N 33°45' W 118°16'0 0.0
2017-Sep-12 06:30N 33°45' W 118°16'0 0.0
2017-Sep-12 06:00N 33°45' W 118°16'0 0.0
2017-Sep-12 05:30N 33°45' W 118°16'0 0.0
2017-Sep-12 05:00N 33°45' W 118°16'0 0.0
2017-Sep-12 04:30N 33°45' W 118°16'0 0.0
2017-Sep-12 04:00N 33°45' W 118°16'0 0.0
2017-Sep-12 03:30N 33°45' W 118°16'0 0.0
2017-Sep-12 03:00N 33°45' W 118°16'0 0.0
2017-Sep-12 02:30N 33°45' W 118°16'0 0.0
2017-Sep-12 02:00N 33°45' W 118°16'0 0.0
2017-Sep-12 01:30N 33°45' W 118°16'0 0.0
2017-Sep-12 01:00N 33°45' W 118°16'0 0.0
2017-Sep-12 00:30N 33°45' W 118°16'0 0.0
2017-Sep-12 00:00N 33°45' W 118°16'0 0.0
2017-Sep-11 23:30N 33°45' W 118°16'0 0.0
2017-Sep-11 23:00N 33°45' W 118°16'0 0.0
2017-Sep-11 22:30N 33°45' W 118°16'0 0.0
2017-Sep-11 22:00N 33°45' W 118°16'0 0.0
2017-Sep-11 21:30N 33°45' W 118°16'0 0.0
2017-Sep-11 21:00N 33°45' W 118°16'0 0.0
2017-Sep-11 20:30N 33°45' W 118°16'0 0.0
2017-Sep-11 20:00N 33°45' W 118°16'0 0.0
2017-Sep-11 19:30N 33°45' W 118°16'0 0.0
2017-Sep-11 19:00N 33°45' W 118°16'0 0.0
2017-Sep-11 18:30N 33°45' W 118°16'0 0.0
2017-Sep-11 18:00N 33°45' W 118°16'0 0.0
2017-Sep-11 17:30N 33°45' W 118°16'0 0.0
2017-Sep-11 17:00N 33°45' W 118°16'0 0.0
2017-Sep-11 16:30N 33°45' W 118°16'0 0.0
2017-Sep-11 16:00N 33°45' W 118°16'0 0.0
2017-Sep-11 15:30N 33°45' W 118°16'0 0.0
2017-Sep-11 15:00N 33°45' W 118°16'0 0.0
2017-Sep-11 14:30N 33°45' W 118°16'0 0.0
2017-Sep-11 14:00N 33°45' W 118°16'0 0.0
2017-Sep-11 13:24N 33°45' W 118°16'0 0.0
2017-Sep-11 13:00N 33°45' W 118°16'0 0.7
2017-Sep-11 12:31N 33°45' W 118°16'2 4.0
2017-Sep-11 12:00N 33°43' W 118°16'4 8.1
2017-Sep-11 11:30N 33°40' W 118°13'3 6.5
2017-Sep-11 11:01N 33°36' W 118°14'4 8.0
2017-Sep-11 10:30N 33°36' W 118°19'4 8.8
2017-Sep-11 10:01N 33°38' W 118°24'510.1
2017-Sep-11 09:31N 33°40' W 118°29'5 9.6
2017-Sep-11 09:01N 33°43' W 118°34'510.4
2017-Sep-11 08:30N 33°45' W 118°40'510.3
2017-Sep-11 08:00N 33°48' W 118°45'510.5
2017-Sep-11 07:30N 33°50' W 118°51'510.5
2017-Sep-11 07:00N 33°53' W 118°56'510.3
2017-Sep-11 06:30N 33°55' W 119°02'510.5
2017-Sep-11 06:00N 33°58' W 119°07'510.4
2017-Sep-11 05:31N 34°01' W 119°12'510.3
2017-Sep-11 05:00N 34°03' W 119°18'510.5
2017-Sep-11 04:30N 34°04' W 119°24'5 9.9
2017-Sep-11 04:00N 34°05' W 119°30'5 9.7
2017-Sep-11 03:30N 34°07' W 119°36'5 9.7
2017-Sep-11 03:01N 34°08' W 119°41'5 9.5
2017-Sep-11 02:30N 34°09' W 119°47'5 9.7
2017-Sep-11 02:01N 34°11' W 119°52'5 9.7
2017-Sep-11 01:30N 34°12' W 119°58'5 9.7
2017-Sep-11 00:59N 34°13' W 120°04'5 9.6
2017-Sep-11 00:30N 34°15' W 120°09'5 9.7
2017-Sep-11 00:00N 34°16' W 120°15'5 9.7
2017-Sep-10 23:30N 34°17' W 120°21'5 9.7
2017-Sep-10 23:00N 34°18' W 120°26'5 9.7
2017-Sep-10 22:31N 34°20' W 120°32'5 9.6
2017-Sep-10 22:00N 34°21' W 120°38'5 9.7
2017-Sep-10 21:30N 34°22' W 120°43'5 9.5
2017-Sep-10 21:00N 34°24' W 120°49'5 9.7
2017-Sep-10 20:30N 34°25' W 120°54'712.5
2017-Sep-10 19:59N 34°26' W 121°02'713.6
2017-Sep-10 19:30N 34°28' W 121°10'714.2
2017-Sep-10 19:00N 34°29' W 121°18'814.1
2017-Sep-10 18:25N 34°31' W 121°28'2 5.6
2017-Sep-10 18:00N 34°31' W 121°31'3 6.8
2017-Sep-10 17:30N 34°32' W 121°35'815.5
2017-Sep-10 17:00N 34°34' W 121°44'816.7
2017-Sep-10 16:30N 34°36' W 121°54'916.9
2017-Sep-10 15:59N 34°37' W 122°04'816.4
2017-Sep-10 15:30N 34°39' W 122°14'816.5
2017-Sep-10 15:01N 34°41' W 122°23'1816.3
2017-Sep-10 13:55N 34°44' W 122°45'716.0
2017-Sep-10 13:31N 34°46' W 122°52'1017.1
2017-Sep-10 12:54N 34°48' W 123°05'717.7
2017-Sep-10 12:30N 34°49' W 123°13'917.5
2017-Sep-10 12:00N 34°51' W 123°24'917.3
2017-Sep-10 11:31N 34°52' W 123°34'917.0
2017-Sep-10 11:00N 34°54' W 123°44'2017.2
2017-Sep-10 09:49N 34°58' W 124°08'  
Track history (hours):
 
Tides and Currents Weather Stations Pressure Air Temp Water Temp Dewpoint Dewpoint Depression Visibility Wind Speed Wind Dir Waves Ship Positions

MOL Contribution

Last reported at 2017-Sep-17 19:56 UTC. Time now 2017-Sep-25 11:37 UTC.
Position N 38°09' W 124°58'.

Length 316 m; draft 12.6 m.

Type: Ship (hazmat cat A). MMSI: 431496000.

Date/timePositionNaut miles runAvg speedWind from/ knotsBaromVisibWave heightAir tempDewpointWater temp
2017-Sep-17 19:56N 38°09' W 124°58'817.6
2017-Sep-17 19:30N 38°10' W 124°49'917.5
2017-Sep-17 19:01N 38°10' W 124°38'1217.5
2017-Sep-17 18:19N 38°10' W 124°22'517.2
2017-Sep-17 18:00N 38°10' W 124°15'917.3
2017-Sep-17 17:31N 38°10' W 124°05'917.4
2017-Sep-17 17:00N 38°09' W 123°53'917.4
2017-Sep-17 16:31N 38°10' W 123°42'816.9
2017-Sep-17 16:01N 38°09' W 123°32'714.3
2017-Sep-17 15:30N 38°09' W 123°23'5 9.2
2017-Sep-17 15:00N 38°07' W 123°18'5 9.6
2017-Sep-17 14:30N 38°03' W 123°14'5 9.5
2017-Sep-17 14:00N 37°59' W 123°10'5 9.6
2017-Sep-17 13:30N 37°57' W 123°05'5 9.3
2017-Sep-17 13:00N 37°55' W 122°59'5 9.5
2017-Sep-17 12:30N 37°52' W 122°54'5 9.6
2017-Sep-17 12:00N 37°50' W 122°49'5 9.8
2017-Sep-17 11:30N 37°47' W 122°44'5 9.3
2017-Sep-17 11:00N 37°46' W 122°38'612.0
2017-Sep-17 10:30N 37°48' W 122°31'612.0
2017-Sep-17 10:00N 37°49' W 122°24'3 6.3
2017-Sep-17 09:30N 37°49' W 122°20'0 0.4
2017-Sep-17 09:00N 37°49' W 122°20'0 0.0
2017-Sep-17 08:30N 37°49' W 122°20'0 0.0
2017-Sep-17 08:00N 37°49' W 122°20'0 0.0
2017-Sep-17 07:30N 37°49' W 122°20'0 0.0
2017-Sep-17 07:00N 37°49' W 122°20'0 0.0
2017-Sep-17 06:30N 37°49' W 122°20'0 0.0
2017-Sep-17 06:00N 37°49' W 122°20'0 0.0
2017-Sep-17 05:30N 37°49' W 122°20'0 0.0
2017-Sep-17 05:00N 37°49' W 122°20'0 0.0
2017-Sep-17 04:30N 37°49' W 122°20'0 0.0
2017-Sep-17 04:00N 37°49' W 122°20'0 0.0
2017-Sep-17 03:30N 37°49' W 122°20'0 0.0
2017-Sep-17 03:00N 37°49' W 122°20'0 0.0
2017-Sep-17 02:30N 37°49' W 122°20'0 0.0
2017-Sep-17 02:00N 37°49' W 122°20'0 0.0
2017-Sep-17 01:30N 37°49' W 122°20'0 0.0
2017-Sep-17 01:00N 37°49' W 122°20'0 0.0
2017-Sep-17 00:30N 37°49' W 122°20'0 0.0
2017-Sep-17 00:00N 37°49' W 122°20'0 0.0
2017-Sep-16 23:30N 37°49' W 122°20'0 0.0
2017-Sep-16 23:00N 37°49' W 122°20'0 0.0
2017-Sep-16 22:30N 37°49' W 122°20'0 0.0
2017-Sep-16 22:00N 37°49' W 122°20'0 0.0
2017-Sep-16 21:30N 37°49' W 122°20'0 0.0
2017-Sep-16 21:00N 37°49' W 122°20'0 0.0
2017-Sep-16 20:30N 37°49' W 122°20'0 0.0
2017-Sep-16 20:00N 37°49' W 122°20'0 0.0
2017-Sep-16 19:30N 37°49' W 122°20'0 0.1
2017-Sep-16 19:00N 37°49' W 122°20'0 0.1
2017-Sep-16 18:30N 37°49' W 122°20'0 0.0
2017-Sep-16 18:00N 37°49' W 122°20'0 0.0
2017-Sep-16 17:30N 37°49' W 122°20'0 0.0
2017-Sep-16 17:00N 37°49' W 122°20'0 0.0
2017-Sep-16 16:30N 37°49' W 122°20'0 0.0
2017-Sep-16 16:00N 37°49' W 122°20'0 0.0
2017-Sep-16 15:30N 37°49' W 122°20'0 0.0
2017-Sep-16 15:00N 37°49' W 122°20'0 0.0
2017-Sep-16 14:30N 37°49' W 122°20'0 0.0
2017-Sep-16 14:00N 37°49' W 122°20'0 0.0
2017-Sep-16 13:30N 37°49' W 122°20'0 0.0
2017-Sep-16 13:00N 37°49' W 122°20'0 0.0
2017-Sep-16 12:30N 37°49' W 122°20'0 0.0
2017-Sep-16 12:00N 37°49' W 122°20'0 0.0
2017-Sep-16 11:30N 37°49' W 122°20'0 0.0
2017-Sep-16 11:00N 37°49' W 122°20'0 0.0
2017-Sep-16 10:30N 37°49' W 122°20'0 0.0
2017-Sep-16 10:00N 37°49' W 122°20'0 0.1
2017-Sep-16 09:30N 37°49' W 122°20'0 0.1
2017-Sep-16 09:00N 37°49' W 122°20'0 0.0
2017-Sep-16 08:30N 37°49' W 122°20'0 0.0
2017-Sep-16 08:00N 37°49' W 122°20'0 0.0
2017-Sep-16 07:30N 37°49' W 122°20'0 0.0
2017-Sep-16 07:00N 37°49' W 122°20'0 0.0
2017-Sep-16 06:30N 37°49' W 122°20'0 0.0
2017-Sep-16 06:00N 37°49' W 122°20'0 0.0
2017-Sep-16 05:30N 37°49' W 122°20'0 0.0
2017-Sep-16 05:00N 37°49' W 122°20'0 0.0
2017-Sep-16 04:30N 37°49' W 122°20'0 0.0
2017-Sep-16 04:00N 37°49' W 122°20'0 0.0
2017-Sep-16 03:30N 37°49' W 122°20'0 0.0
2017-Sep-16 03:00N 37°49' W 122°20'0 0.0
2017-Sep-16 02:30N 37°49' W 122°20'0 0.0
2017-Sep-16 02:00N 37°49' W 122°20'0 0.0
2017-Sep-16 01:30N 37°49' W 122°20'0 0.0
2017-Sep-16 01:00N 37°49' W 122°20'0 0.0
2017-Sep-16 00:30N 37°49' W 122°20'0 0.0
2017-Sep-16 00:00N 37°49' W 122°20'0 0.0
2017-Sep-15 23:27N 37°49' W 122°20'0 0.8
2017-Sep-15 23:00N 37°49' W 122°20'4 7.9
2017-Sep-15 22:30N 37°49' W 122°25'612.4
2017-Sep-15 22:01N 37°47' W 122°33'612.8
2017-Sep-15 21:30N 37°45' W 122°40'4 7.1
2017-Sep-15 21:00N 37°41' W 122°40'714.5
2017-Sep-15 20:30N 37°34' W 122°39'918.5
2017-Sep-15 20:00N 37°25' W 122°39'918.7
2017-Sep-15 19:30N 37°16' W 122°39'1020.1
2017-Sep-15 19:01N 37°06' W 122°37'1121.1
2017-Sep-15 18:30N 36°55' W 122°33'2021.6
2017-Sep-15 17:36N 36°37' W 122°24'321.6
2017-Sep-15 17:27N 36°35' W 122°22'1222.2
2017-Sep-15 16:56N 36°24' W 122°16'1122.4
2017-Sep-15 16:26N 36°14' W 122°09'922.2
2017-Sep-15 16:00N 36°06' W 122°04'1522.3
2017-Sep-15 15:20N 35°53' W 121°54'722.2
2017-Sep-15 15:00N 35°47' W 121°50'1121.9
2017-Sep-15 14:30N 35°37' W 121°43'1121.8
2017-Sep-15 14:00N 35°28' W 121°37'1122.3
2017-Sep-15 13:30N 35°18' W 121°30'1122.0
2017-Sep-15 13:00N 35°09' W 121°23'1122.3
2017-Sep-15 12:30N 34°59' W 121°16'1122.1
2017-Sep-15 12:00N 34°50' W 121°09'1122.1
2017-Sep-15 11:30N 34°40' W 121°02'1122.0
2017-Sep-15 11:00N 34°31' W 120°56'1020.5
2017-Sep-15 10:30N 34°25' W 120°45'1122.2
2017-Sep-15 10:00N 34°22' W 120°32'1222.3
2017-Sep-15 09:28N 34°19' W 120°18'1122.3
2017-Sep-15 09:00N 34°16' W 120°06'1122.2
2017-Sep-15 08:31N 34°13' W 119°53'1122.3
2017-Sep-15 08:00N 34°10' W 119°40'1221.9
2017-Sep-15 07:29N 34°07' W 119°27'1020.3
2017-Sep-15 07:00N 34°04' W 119°16'917.4
2017-Sep-15 06:30N 34°00' W 119°06'713.4
2017-Sep-15 06:00N 33°57' W 118°59'611.7
2017-Sep-15 05:30N 33°54' W 118°53'611.8
2017-Sep-15 05:00N 33°51' W 118°47'611.8
2017-Sep-15 04:30N 33°48' W 118°41'611.8
2017-Sep-15 04:00N 33°45' W 118°35'611.8
2017-Sep-15 03:30N 33°42' W 118°29'611.9
2017-Sep-15 03:00N 33°39' W 118°22'611.1
2017-Sep-15 02:30N 33°39' W 118°16'4 7.7
2017-Sep-15 02:00N 33°43' W 118°15'2 4.7
2017-Sep-15 01:30N 33°45' W 118°16'0 0.9
2017-Sep-15 01:00N 33°45' W 118°16'0 0.0
2017-Sep-15 00:30N 33°45' W 118°16'0 0.0
2017-Sep-14 23:57N 33°45' W 118°16'0 0.0
2017-Sep-14 22:48N 33°45' W 118°16'0 0.0
2017-Sep-14 22:30N 33°45' W 118°16'0 0.0
2017-Sep-14 21:42N 33°45' W 118°16'0 0.0
2017-Sep-14 21:18N 33°45' W 118°16'0 0.0
2017-Sep-14 20:48N 33°45' W 118°16'0 0.0
2017-Sep-14 20:30N 33°45' W 118°16'0 0.0
2017-Sep-14 20:00N 33°45' W 118°16'0 0.0
2017-Sep-14 19:21N 33°45' W 118°16'0 0.0
2017-Sep-14 18:39N 33°45' W 118°16'0 0.0
2017-Sep-14 18:30N 33°45' W 118°16'0 0.0
2017-Sep-14 18:00N 33°45' W 118°16'0 0.0
2017-Sep-14 17:24N 33°45' W 118°16'0 0.0
2017-Sep-14 16:54N 33°45' W 118°16'0 0.0
2017-Sep-14 16:30N 33°45' W 118°16'0 0.0
2017-Sep-14 16:00N 33°45' W 118°16'0 0.0
2017-Sep-14 15:30N 33°45' W 118°16'0 0.0
2017-Sep-14 14:18N 33°45' W 118°16'0 0.0
2017-Sep-14 13:57N 33°45' W 118°16'0 0.0
2017-Sep-14 13:09N 33°45' W 118°16'0 0.0
2017-Sep-14 12:54N 33°45' W 118°16'0 0.0
2017-Sep-14 12:18N 33°45' W 118°16'0 0.0
2017-Sep-14 10:48N 33°45' W 118°16'0 0.0
2017-Sep-14 10:18N 33°45' W 118°16'0 0.0
2017-Sep-14 09:15N 33°45' W 118°16'0 0.0
2017-Sep-14 08:00N 33°45' W 118°16'0 0.0
2017-Sep-14 07:24N 33°45' W 118°16'0 0.0
2017-Sep-14 06:42N 33°45' W 118°16'0 0.0
2017-Sep-14 06:21N 33°45' W 118°16'0 0.0
2017-Sep-14 05:57N 33°45' W 118°16'0 0.0
2017-Sep-14 05:27N 33°45' W 118°16'0 0.0
2017-Sep-14 04:57N 33°45' W 118°16'0 0.0
2017-Sep-14 04:30N 33°45' W 118°16'0 0.0
2017-Sep-14 03:54N 33°45' W 118°16'0 0.0
2017-Sep-14 03:24N 33°45' W 118°16'0 0.0
2017-Sep-14 03:00N 33°45' W 118°16'0 0.0
2017-Sep-14 02:30N 33°45' W 118°16'0 0.0
2017-Sep-14 02:00N 33°45' W 118°16'0 0.0
2017-Sep-14 01:30N 33°45' W 118°16'0 0.0
2017-Sep-14 01:00N 33°45' W 118°16'0 0.0
2017-Sep-14 00:30N 33°45' W 118°16'0 0.0
2017-Sep-14 00:00N 33°45' W 118°16'0 0.0
2017-Sep-13 23:27N 33°45' W 118°16'0 0.0
2017-Sep-13 23:00N 33°45' W 118°16'0 0.0
2017-Sep-13 22:30N 33°45' W 118°16'0 0.0
2017-Sep-13 22:00N 33°45' W 118°16'0 0.0
2017-Sep-13 21:30N 33°45' W 118°16'0 0.0
2017-Sep-13 21:00N 33°45' W 118°16'0 0.0
2017-Sep-13 20:30N 33°45' W 118°16'0 0.0
2017-Sep-13 20:00N 33°45' W 118°16'0 0.0
2017-Sep-13 19:30N 33°45' W 118°16'0 0.0
2017-Sep-13 18:54N 33°45' W 118°16'0 0.0
2017-Sep-13 18:30N 33°45' W 118°16'0 0.0
2017-Sep-13 18:00N 33°45' W 118°16'0 0.0
2017-Sep-13 17:30N 33°45' W 118°16'0 0.0
2017-Sep-13 17:00N 33°45' W 118°16'0 0.0
2017-Sep-13 16:30N 33°45' W 118°16'0 0.0
2017-Sep-13 15:57N 33°45' W 118°16'0 0.0
2017-Sep-13 15:15N 33°45' W 118°16'0 0.0
2017-Sep-13 15:00N 33°45' W 118°16'0 0.0
2017-Sep-13 14:30N 33°45' W 118°16'0 0.0
2017-Sep-13 14:00N 33°45' W 118°16'0 0.0
2017-Sep-13 13:30N 33°45' W 118°16'0 0.0
2017-Sep-13 13:00N 33°45' W 118°16'0 0.0
2017-Sep-13 12:30N 33°45' W 118°16'0 0.0
2017-Sep-13 12:00N 33°45' W 118°16'0 0.0
2017-Sep-13 11:30N 33°45' W 118°16'0 0.0
2017-Sep-13 11:00N 33°45' W 118°16'0 0.0
2017-Sep-13 10:30N 33°45' W 118°16'0 0.0
2017-Sep-13 10:00N 33°45' W 118°16'0 0.0
2017-Sep-13 09:30N 33°45' W 118°16'0 0.0
2017-Sep-13 08:57N 33°45' W 118°16'0 0.0
2017-Sep-13 08:30N 33°45' W 118°16'0 0.0
2017-Sep-13 08:00N 33°45' W 118°16'0 0.0
2017-Sep-13 07:30N 33°45' W 118°16'0 0.0
2017-Sep-13 07:00N 33°45' W 118°16'0 0.0
2017-Sep-13 06:30N 33°45' W 118°16'0 0.0
2017-Sep-13 06:00N 33°45' W 118°16'0 0.0
2017-Sep-13 05:30N 33°45' W 118°16'0 0.0
2017-Sep-13 05:00N 33°45' W 118°16'0 0.0
2017-Sep-13 04:27N 33°45' W 118°16'0 0.0
2017-Sep-13 04:00N 33°45' W 118°16'0 0.0
2017-Sep-13 03:30N 33°45' W 118°16'0 0.0
2017-Sep-13 03:00N 33°45' W 118°16'0 0.0
2017-Sep-13 02:30N 33°45' W 118°16'0 0.0
2017-Sep-13 02:00N 33°45' W 118°16'0 0.0
2017-Sep-13 01:30N 33°45' W 118°16'0 0.0
2017-Sep-13 01:00N 33°45' W 118°16'0 0.0
2017-Sep-13 00:30N 33°45' W 118°16'0 0.0
2017-Sep-13 00:00N 33°45' W 118°16'0 0.0
2017-Sep-12 23:30N 33°45' W 118°16'0 0.0
2017-Sep-12 23:00N 33°45' W 118°16'0 0.0
2017-Sep-12 22:30N 33°45' W 118°16'0 0.0
2017-Sep-12 22:00N 33°45' W 118°16'0 0.0
2017-Sep-12 21:30N 33°45' W 118°16'0 0.0
2017-Sep-12 21:00N 33°45' W 118°16'0 0.0
2017-Sep-12 20:30N 33°45' W 118°16'0 0.0
2017-Sep-12 20:00N 33°45' W 118°16'0 0.0
2017-Sep-12 19:30N 33°45' W 118°16'0 0.0
2017-Sep-12 19:00N 33°45' W 118°16'0 0.0
2017-Sep-12 18:30N 33°45' W 118°16'0 0.0
2017-Sep-12 18:00N 33°45' W 118°16'0 0.0
2017-Sep-12 17:30N 33°45' W 118°16'0 0.0
2017-Sep-12 17:00N 33°45' W 118°16'0 0.0
2017-Sep-12 16:30N 33°45' W 118°16'0 0.0
2017-Sep-12 16:00N 33°45' W 118°16'0 0.0
2017-Sep-12 15:30N 33°45' W 118°16'0 0.0
2017-Sep-12 15:00N 33°45' W 118°16'0 0.0
2017-Sep-12 14:30N 33°45' W 118°16'0 0.0
2017-Sep-12 14:00N 33°45' W 118°16'0 0.0
2017-Sep-12 13:30N 33°45' W 118°16'0 0.0
2017-Sep-12 13:00N 33°45' W 118°16'0 0.0
2017-Sep-12 12:30N 33°45' W 118°16'0 0.0
2017-Sep-12 12:00N 33°45' W 118°16'0 0.0
2017-Sep-12 11:24N 33°45' W 118°16'0 0.0
2017-Sep-12 11:00N 33°45' W 118°16'0 0.0
2017-Sep-12 10:30N 33°45' W 118°16'0 0.0
2017-Sep-12 10:00N 33°45' W 118°16'0 0.0
2017-Sep-12 09:30N 33°45' W 118°16'0 0.0
2017-Sep-12 09:00N 33°45' W 118°16'0 0.0
2017-Sep-12 08:30N 33°45' W 118°16'0 0.0
2017-Sep-12 08:00N 33°45' W 118°16'0 0.0
2017-Sep-12 07:30N 33°45' W 118°16'0 0.0
2017-Sep-12 07:00N 33°45' W 118°16'0 0.0
2017-Sep-12 06:30N 33°45' W 118°16'0 0.0
2017-Sep-12 06:00N 33°45' W 118°16'0 0.0
2017-Sep-12 05:30N 33°45' W 118°16'0 0.0
2017-Sep-12 05:00N 33°45' W 118°16'0 0.0
2017-Sep-12 04:30N 33°45' W 118°16'0 0.0
2017-Sep-12 04:00N 33°45' W 118°16'0 0.0
2017-Sep-12 03:30N 33°45' W 118°16'0 0.0
2017-Sep-12 03:00N 33°45' W 118°16'0 0.0
2017-Sep-12 02:30N 33°45' W 118°16'0 0.0
2017-Sep-12 02:00N 33°45' W 118°16'0 0.0
2017-Sep-12 01:30N 33°45' W 118°16'0 0.0
2017-Sep-12 01:00N 33°45' W 118°16'0 0.0
2017-Sep-12 00:30N 33°45' W 118°16'0 0.0
2017-Sep-12 00:00N 33°45' W 118°16'0 0.0
2017-Sep-11 23:30N 33°45' W 118°16'0 0.0
2017-Sep-11 23:00N 33°45' W 118°16'0 0.0
2017-Sep-11 22:30N 33°45' W 118°16'0 0.0
2017-Sep-11 22:00N 33°45' W 118°16'0 0.0
2017-Sep-11 21:30N 33°45' W 118°16'0 0.0
2017-Sep-11 21:00N 33°45' W 118°16'0 0.0
2017-Sep-11 20:30N 33°45' W 118°16'0 0.0
2017-Sep-11 20:00N 33°45' W 118°16'0 0.0
2017-Sep-11 19:30N 33°45' W 118°16'0 0.0
2017-Sep-11 19:00N 33°45' W 118°16'0 0.0
2017-Sep-11 18:30N 33°45' W 118°16'0 0.0
2017-Sep-11 18:00N 33°45' W 118°16'0 0.0
2017-Sep-11 17:30N 33°45' W 118°16'0 0.0
2017-Sep-11 17:00N 33°45' W 118°16'0 0.0
2017-Sep-11 16:30N 33°45' W 118°16'0 0.0
2017-Sep-11 16:00N 33°45' W 118°16'0 0.0
2017-Sep-11 15:30N 33°45' W 118°16'0 0.0
2017-Sep-11 15:00N 33°45' W 118°16'0 0.0
2017-Sep-11 14:30N 33°45' W 118°16'0 0.0
2017-Sep-11 14:00N 33°45' W 118°16'0 0.0
2017-Sep-11 13:24N 33°45' W 118°16'0 0.0
2017-Sep-11 13:00N 33°45' W 118°16'0 0.7
2017-Sep-11 12:31N 33°45' W 118°16'2 4.0
2017-Sep-11 12:00N 33°43' W 118°16'4 8.1
2017-Sep-11 11:30N 33°40' W 118°13'3 6.5
2017-Sep-11 11:01N 33°36' W 118°14'4 8.0
2017-Sep-11 10:30N 33°36' W 118°19'4 8.8
2017-Sep-11 10:01N 33°38' W 118°24'510.1
2017-Sep-11 09:31N 33°40' W 118°29'5 9.6
2017-Sep-11 09:01N 33°43' W 118°34'510.4
2017-Sep-11 08:30N 33°45' W 118°40'510.3
2017-Sep-11 08:00N 33°48' W 118°45'510.5
2017-Sep-11 07:30N 33°50' W 118°51'510.5
2017-Sep-11 07:00N 33°53' W 118°56'510.3
2017-Sep-11 06:30N 33°55' W 119°02'510.5
2017-Sep-11 06:00N 33°58' W 119°07'510.4
2017-Sep-11 05:31N 34°01' W 119°12'510.3
2017-Sep-11 05:00N 34°03' W 119°18'510.5
2017-Sep-11 04:30N 34°04' W 119°24'5 9.9
2017-Sep-11 04:00N 34°05' W 119°30'5 9.7
2017-Sep-11 03:30N 34°07' W 119°36'5 9.7
2017-Sep-11 03:01N 34°08' W 119°41'5 9.5
2017-Sep-11 02:30N 34°09' W 119°47'5 9.7
2017-Sep-11 02:01N 34°11' W 119°52'5 9.7
2017-Sep-11 01:30N 34°12' W 119°58'5 9.7
2017-Sep-11 00:59N 34°13' W 120°04'5 9.6
2017-Sep-11 00:30N 34°15' W 120°09'5 9.7
2017-Sep-11 00:00N 34°16' W 120°15'5 9.7
2017-Sep-10 23:30N 34°17' W 120°21'5 9.7
2017-Sep-10 23:00N 34°18' W 120°26'5 9.7
2017-Sep-10 22:31N 34°20' W 120°32'5 9.6
2017-Sep-10 22:00N 34°21' W 120°38'5 9.7
2017-Sep-10 21:30N 34°22' W 120°43'5 9.5
2017-Sep-10 21:00N 34°24' W 120°49'5 9.7
2017-Sep-10 20:30N 34°25' W 120°54'712.5
2017-Sep-10 19:59N 34°26' W 121°02'713.6
2017-Sep-10 19:30N 34°28' W 121°10'714.2
2017-Sep-10 19:00N 34°29' W 121°18'814.1
2017-Sep-10 18:25N 34°31' W 121°28'2 5.6
2017-Sep-10 18:00N 34°31' W 121°31'3 6.8
2017-Sep-10 17:30N 34°32' W 121°35'815.5
2017-Sep-10 17:00N 34°34' W 121°44'816.7
2017-Sep-10 16:30N 34°36' W 121°54'916.9
2017-Sep-10 15:59N 34°37' W 122°04'816.4
2017-Sep-10 15:30N 34°39' W 122°14'816.5
2017-Sep-10 15:01N 34°41' W 122°23'1816.3
2017-Sep-10 13:55N 34°44' W 122°45'716.0
2017-Sep-10 13:31N 34°46' W 122°52'1017.1
2017-Sep-10 12:54N 34°48' W 123°05'717.7
2017-Sep-10 12:30N 34°49' W 123°13'917.5
2017-Sep-10 12:00N 34°51' W 123°24'917.3
2017-Sep-10 11:31N 34°52' W 123°34'917.0
2017-Sep-10 11:00N 34°54' W 123°44'2017.2
2017-Sep-10 09:49N 34°58' W 124°08'  

Dump ship's entire track history